Aviation Digital Data Service (ADDS)

Output produced by METARs form (1200 UTC 26 March 2019)
found at http://www.aviationweather.gov/metar/data/
 
HBBA 261100Z 18006KT 9999 FEW025TCU FEW030CB SCT100 28/20 Q1013 NOSIG
TAF HBBA 260500Z 2606/2712 18010G25KT 9999 FEW030 FEW030CB BKN100 
     PROB40 
     TEMPO2613/2615 6000 TSRA OR SHRA 
     BECMG 2617/2619 VRB 03KT 9999 SCT100 
     BECMG 2702/2704 36002KT 9999 SCT080 
     BECMG 2707/2719 18010G25KT 9999 FEW 030 BKN100